sensor_id;sensor_type;location;lat;lon;timestamp;temperature;humidity
4635;DHT22;2330;48.158;11.816;2023-06-10T00:00:26;17.80;97.20
4635;DHT22;2330;48.158;11.816;2023-06-10T00:02:53;17.80;97.00
4635;DHT22;2330;48.158;11.816;2023-06-10T00:05:20;17.70;97.50
4635;DHT22;2330;48.158;11.816;2023-06-10T00:07:47;17.60;97.70
4635;DHT22;2330;48.158;11.816;2023-06-10T00:10:14;17.50;97.90
4635;DHT22;2330;48.158;11.816;2023-06-10T00:12:42;17.60;98.00
4635;DHT22;2330;48.158;11.816;2023-06-10T00:15:10;17.60;97.80
4635;DHT22;2330;48.158;11.816;2023-06-10T00:17:37;17.40;98.20
4635;DHT22;2330;48.158;11.816;2023-06-10T00:20:10;17.40;98.40
4635;DHT22;2330;48.158;11.816;2023-06-10T00:22:40;17.50;98.10
4635;DHT22;2330;48.158;11.816;2023-06-10T00:25:09;17.40;98.20
4635;DHT22;2330;48.158;11.816;2023-06-10T00:27:36;17.50;98.10
4635;DHT22;2330;48.158;11.816;2023-06-10T00:30:04;17.50;98.00
4635;DHT22;2330;48.158;11.816;2023-06-10T00:32:34;17.40;98.50
4635;DHT22;2330;48.158;11.816;2023-06-10T00:35:01;17.40;98.50
4635;DHT22;2330;48.158;11.816;2023-06-10T00:37:28;17.40;98.50
4635;DHT22;2330;48.158;11.816;2023-06-10T00:39:56;17.30;98.50
4635;DHT22;2330;48.158;11.816;2023-06-10T00:42:22;17.30;98.50
4635;DHT22;2330;48.158;11.816;2023-06-10T00:44:51;17.30;98.50
4635;DHT22;2330;48.158;11.816;2023-06-10T00:47:18;17.20;98.50
4635;DHT22;2330;48.158;11.816;2023-06-10T00:49:46;17.20;98.50
4635;DHT22;2330;48.158;11.816;2023-06-10T00:52:14;17.20;98.50
4635;DHT22;2330;48.158;11.816;2023-06-10T00:54:42;17.10;98.50
4635;DHT22;2330;48.158;11.816;2023-06-10T00:57:10;17.10;98.50
4635;DHT22;2330;48.158;11.816;2023-06-10T00:59:47;17.10;98.50
4635;DHT22;2330;48.158;11.816;2023-06-10T01:02:14;17.10;98.50
4635;DHT22;2330;48.158;11.816;2023-06-10T01:04:41;17.10;98.50
4635;DHT22;2330;48.158;11.816;2023-06-10T01:07:21;17.10;98.50
4635;DHT22;2330;48.158;11.816;2023-06-10T01:15:17;17.10;98.50
4635;DHT22;2330;48.158;11.816;2023-06-10T01:18:01;17.10;98.50
4635;DHT22;2330;48.158;11.816;2023-06-10T01:20:32;17.10;98.50
4635;DHT22;2330;48.158;11.816;2023-06-10T01:23:00;17.10;98.50
4635;DHT22;2330;48.158;11.816;2023-06-10T01:25:30;16.90;98.50
4635;DHT22;2330;48.158;11.816;2023-06-10T01:30:48;16.70;98.50
4635;DHT22;2330;48.158;11.816;2023-06-10T01:33:24;16.50;98.50
4635;DHT22;2330;48.158;11.816;2023-06-10T01:35:52;16.50;98.50
4635;DHT22;2330;48.158;11.816;2023-06-10T01:38:19;16.40;98.50
4635;DHT22;2330;48.158;11.816;2023-06-10T01:40:48;16.40;98.50
4635;DHT22;2330;48.158;11.816;2023-06-10T01:43:15;16.50;98.50
4635;DHT22;2330;48.158;11.816;2023-06-10T01:45:42;16.60;98.50
4635;DHT22;2330;48.158;11.816;2023-06-10T01:48:09;16.70;98.50
4635;DHT22;2330;48.158;11.816;2023-06-10T01:50:35;16.70;98.50
4635;DHT22;2330;48.158;11.816;2023-06-10T01:53:04;16.70;98.50
4635;DHT22;2330;48.158;11.816;2023-06-10T01:55:31;16.80;98.50
4635;DHT22;2330;48.158;11.816;2023-06-10T01:57:58;16.70;98.50
4635;DHT22;2330;48.158;11.816;2023-06-10T02:00:25;16.80;98.50
4635;DHT22;2330;48.158;11.816;2023-06-10T02:02:51;16.80;98.50
4635;DHT22;2330;48.158;11.816;2023-06-10T02:05:18;16.80;98.50
4635;DHT22;2330;48.158;11.816;2023-06-10T02:07:45;16.80;98.50
4635;DHT22;2330;48.158;11.816;2023-06-10T02:10:12;16.80;98.50
4635;DHT22;2330;48.158;11.816;2023-06-10T02:12:39;16.70;98.50
4635;DHT22;2330;48.158;11.816;2023-06-10T02:15:05;16.80;98.50
4635;DHT22;2330;48.158;11.816;2023-06-10T02:17:32;16.70;98.50
4635;DHT22;2330;48.158;11.816;2023-06-10T02:19:59;16.70;98.50
4635;DHT22;2330;48.158;11.816;2023-06-10T02:22:33;16.60;98.50
4635;DHT22;2330;48.158;11.816;2023-06-10T02:25:00;16.50;98.50
4635;DHT22;2330;48.158;11.816;2023-06-10T02:27:27;16.50;98.50
4635;DHT22;2330;48.158;11.816;2023-06-10T02:29:53;16.20;98.50
4635;DHT22;2330;48.158;11.816;2023-06-10T02:32:20;16.20;98.50
4635;DHT22;2330;48.158;11.816;2023-06-10T02:34:47;16.20;98.50
4635;DHT22;2330;48.158;11.816;2023-06-10T02:37:15;16.30;98.50
4635;DHT22;2330;48.158;11.816;2023-06-10T02:39:42;16.30;98.50
4635;DHT22;2330;48.158;11.816;2023-06-10T02:42:09;16.20;98.50
4635;DHT22;2330;48.158;11.816;2023-06-10T02:44:37;16.00;98.50
4635;DHT22;2330;48.158;11.816;2023-06-10T02:47:04;16.10;98.50
4635;DHT22;2330;48.158;11.816;2023-06-10T02:49:31;16.10;98.50
4635;DHT22;2330;48.158;11.816;2023-06-10T02:51:58;16.20;98.50
4635;DHT22;2330;48.158;11.816;2023-06-10T02:54:25;16.20;98.50
4635;DHT22;2330;48.158;11.816;2023-06-10T02:56:52;16.10;98.50
4635;DHT22;2330;48.158;11.816;2023-06-10T02:59:19;15.90;98.50
4635;DHT22;2330;48.158;11.816;2023-06-10T03:01:46;15.90;98.50
4635;DHT22;2330;48.158;11.816;2023-06-10T03:04:13;15.80;98.50
4635;DHT22;2330;48.158;11.816;2023-06-10T03:06:41;15.70;98.50
4635;DHT22;2330;48.158;11.816;2023-06-10T03:09:09;15.70;98.50
4635;DHT22;2330;48.158;11.816;2023-06-10T03:11:37;15.70;98.50
4635;DHT22;2330;48.158;11.816;2023-06-10T03:14:04;15.60;98.50
4635;DHT22;2330;48.158;11.816;2023-06-10T03:16:31;15.50;98.50
4635;DHT22;2330;48.158;11.816;2023-06-10T03:18:58;15.50;98.50
4635;DHT22;2330;48.158;11.816;2023-06-10T03:21:25;15.40;98.50
4635;DHT22;2330;48.158;11.816;2023-06-10T03:23:52;15.40;98.50
4635;DHT22;2330;48.158;11.816;2023-06-10T03:26:19;15.50;98.50
4635;DHT22;2330;48.158;11.816;2023-06-10T03:28:48;15.50;98.50
4635;DHT22;2330;48.158;11.816;2023-06-10T03:31:15;15.50;98.50
4635;DHT22;2330;48.158;11.816;2023-06-10T03:33:43;15.50;98.50
4635;DHT22;2330;48.158;11.816;2023-06-10T03:36:10;15.50;98.50
4635;DHT22;2330;48.158;11.816;2023-06-10T03:38:37;15.40;98.50
4635;DHT22;2330;48.158;11.816;2023-06-10T03:41:04;15.40;98.50
4635;DHT22;2330;48.158;11.816;2023-06-10T03:43:31;15.40;98.50
4635;DHT22;2330;48.158;11.816;2023-06-10T03:45:57;15.30;98.50
4635;DHT22;2330;48.158;11.816;2023-06-10T03:48:25;15.40;98.50
4635;DHT22;2330;48.158;11.816;2023-06-10T03:50:51;15.30;98.50
4635;DHT22;2330;48.158;11.816;2023-06-10T03:53:19;15.30;98.50
4635;DHT22;2330;48.158;11.816;2023-06-10T03:55:46;15.30;98.50
4635;DHT22;2330;48.158;11.816;2023-06-10T03:58:13;15.20;98.50
4635;DHT22;2330;48.158;11.816;2023-06-10T04:00:41;15.30;98.50
4635;DHT22;2330;48.158;11.816;2023-06-10T04:03:08;15.20;98.50
4635;DHT22;2330;48.158;11.816;2023-06-10T04:05:42;15.40;98.50
4635;DHT22;2330;48.158;11.816;2023-06-10T04:08:09;15.50;98.50
4635;DHT22;2330;48.158;11.816;2023-06-10T04:10:35;15.60;98.50
4635;DHT22;2330;48.158;11.816;2023-06-10T04:13:02;15.70;98.50
4635;DHT22;2330;48.158;11.816;2023-06-10T04:15:30;15.80;98.50
4635;DHT22;2330;48.158;11.816;2023-06-10T04:17:59;15.80;98.50
4635;DHT22;2330;48.158;11.816;2023-06-10T04:20:27;15.80;98.50
4635;DHT22;2330;48.158;11.816;2023-06-10T04:22:54;15.80;98.50
4635;DHT22;2330;48.158;11.816;2023-06-10T04:25:21;15.80;98.50
4635;DHT22;2330;48.158;11.816;2023-06-10T04:27:48;15.90;98.50
4635;DHT22;2330;48.158;11.816;2023-06-10T04:30:16;16.00;98.50
4635;DHT22;2330;48.158;11.816;2023-06-10T04:32:43;16.00;98.50
4635;DHT22;2330;48.158;11.816;2023-06-10T04:35:12;16.10;98.50
4635;DHT22;2330;48.158;11.816;2023-06-10T04:37:40;16.20;98.50
4635;DHT22;2330;48.158;11.816;2023-06-10T04:40:08;16.20;98.50
4635;DHT22;2330;48.158;11.816;2023-06-10T04:42:36;16.10;98.50
4635;DHT22;2330;48.158;11.816;2023-06-10T04:45:03;16.20;98.50
4635;DHT22;2330;48.158;11.816;2023-06-10T04:47:34;16.20;98.50
4635;DHT22;2330;48.158;11.816;2023-06-10T04:50:01;16.30;98.50
4635;DHT22;2330;48.158;11.816;2023-06-10T04:52:29;16.40;98.50
4635;DHT22;2330;48.158;11.816;2023-06-10T04:54:58;16.50;98.50
4635;DHT22;2330;48.158;11.816;2023-06-10T04:57:25;16.60;98.50
4635;DHT22;2330;48.158;11.816;2023-06-10T04:59:53;16.60;98.50
4635;DHT22;2330;48.158;11.816;2023-06-10T05:02:19;16.50;98.50
4635;DHT22;2330;48.158;11.816;2023-06-10T05:04:47;16.60;98.50
4635;DHT22;2330;48.158;11.816;2023-06-10T05:07:13;16.70;98.50
4635;DHT22;2330;48.158;11.816;2023-06-10T05:09:40;16.70;98.50
4635;DHT22;2330;48.158;11.816;2023-06-10T05:12:07;16.80;98.50
4635;DHT22;2330;48.158;11.816;2023-06-10T05:14:35;16.80;98.50
4635;DHT22;2330;48.158;11.816;2023-06-10T05:17:02;17.00;98.50
4635;DHT22;2330;48.158;11.816;2023-06-10T05:19:29;17.10;98.50
4635;DHT22;2330;48.158;11.816;2023-06-10T05:21:56;17.30;98.50
4635;DHT22;2330;48.158;11.816;2023-06-10T05:24:23;17.50;98.50
4635;DHT22;2330;48.158;11.816;2023-06-10T05:26:50;17.80;98.50
4635;DHT22;2330;48.158;11.816;2023-06-10T05:29:16;18.10;98.50
4635;DHT22;2330;48.158;11.816;2023-06-10T05:31:43;18.20;98.50
4635;DHT22;2330;48.158;11.816;2023-06-10T05:34:10;18.50;98.50
4635;DHT22;2330;48.158;11.816;2023-06-10T05:36:37;18.90;98.50
4635;DHT22;2330;48.158;11.816;2023-06-10T05:39:04;19.20;98.50
4635;DHT22;2330;48.158;11.816;2023-06-10T05:41:31;19.40;98.50
4635;DHT22;2330;48.158;11.816;2023-06-10T05:43:58;19.70;98.50
4635;DHT22;2330;48.158;11.816;2023-06-10T05:46:24;19.70;98.50
4635;DHT22;2330;48.158;11.816;2023-06-10T05:48:51;20.00;98.50
4635;DHT22;2330;48.158;11.816;2023-06-10T05:51:18;20.20;98.50
4635;DHT22;2330;48.158;11.816;2023-06-10T05:53:45;20.20;98.50
4635;DHT22;2330;48.158;11.816;2023-06-10T05:56:14;20.60;98.50
4635;DHT22;2330;48.158;11.816;2023-06-10T05:58:41;20.60;98.50
4635;DHT22;2330;48.158;11.816;2023-06-10T06:01:08;20.40;98.50
4635;DHT22;2330;48.158;11.816;2023-06-10T06:03:35;20.30;98.50
4635;DHT22;2330;48.158;11.816;2023-06-10T06:06:02;20.60;98.50
4635;DHT22;2330;48.158;11.816;2023-06-10T06:08:30;21.00;98.50
4635;DHT22;2330;48.158;11.816;2023-06-10T06:10:57;21.00;97.70
4635;DHT22;2330;48.158;11.816;2023-06-10T06:13:24;21.10;97.90
4635;DHT22;2330;48.158;11.816;2023-06-10T06:15:51;21.30;97.20
4635;DHT22;2330;48.158;11.816;2023-06-10T06:18:18;21.50;96.60
4635;DHT22;2330;48.158;11.816;2023-06-10T06:20:45;21.00;97.30
4635;DHT22;2330;48.158;11.816;2023-06-10T06:23:12;21.00;97.50
4635;DHT22;2330;48.158;11.816;2023-06-10T06:25:38;21.20;97.60
4635;DHT22;2330;48.158;11.816;2023-06-10T06:28:06;21.30;97.20
4635;DHT22;2330;48.158;11.816;2023-06-10T06:30:34;21.30;97.30
4635;DHT22;2330;48.158;11.816;2023-06-10T06:33:01;21.30;97.00
4635;DHT22;2330;48.158;11.816;2023-06-10T06:35:30;21.30;97.50
4635;DHT22;2330;48.158;11.816;2023-06-10T06:37:58;21.50;97.70
4635;DHT22;2330;48.158;11.816;2023-06-10T06:40:25;21.90;96.50
4635;DHT22;2330;48.158;11.816;2023-06-10T06:42:52;21.90;94.30
4635;DHT22;2330;48.158;11.816;2023-06-10T06:45:19;21.90;94.90
4635;DHT22;2330;48.158;11.816;2023-06-10T06:47:46;22.00;93.50
4635;DHT22;2330;48.158;11.816;2023-06-10T06:50:12;22.30;93.40
4635;DHT22;2330;48.158;11.816;2023-06-10T06:52:39;22.90;92.50
4635;DHT22;2330;48.158;11.816;2023-06-10T06:55:06;22.70;91.20
4635;DHT22;2330;48.158;11.816;2023-06-10T06:57:34;22.80;92.60
4635;DHT22;2330;48.158;11.816;2023-06-10T07:00:00;23.00;91.20
4635;DHT22;2330;48.158;11.816;2023-06-10T07:02:27;23.40;90.90
4635;DHT22;2330;48.158;11.816;2023-06-10T07:04:54;23.50;90.90
4635;DHT22;2330;48.158;11.816;2023-06-10T07:07:22;23.70;89.50
4635;DHT22;2330;48.158;11.816;2023-06-10T07:09:49;24.00;88.90
4635;DHT22;2330;48.158;11.816;2023-06-10T07:12:16;24.00;88.20
4635;DHT22;2330;48.158;11.816;2023-06-10T07:14:44;24.00;88.20
4635;DHT22;2330;48.158;11.816;2023-06-10T07:17:11;23.90;88.90
4635;DHT22;2330;48.158;11.816;2023-06-10T07:19:38;23.70;87.20
4635;DHT22;2330;48.158;11.816;2023-06-10T07:22:05;23.80;88.40
4635;DHT22;2330;48.158;11.816;2023-06-10T07:24:32;23.90;88.90
4635;DHT22;2330;48.158;11.816;2023-06-10T07:26:59;24.20;87.80
4635;DHT22;2330;48.158;11.816;2023-06-10T07:29:26;24.60;86.70
4635;DHT22;2330;48.158;11.816;2023-06-10T07:31:52;24.60;87.10
4635;DHT22;2330;48.158;11.816;2023-06-10T07:34:20;24.90;85.90
4635;DHT22;2330;48.158;11.816;2023-06-10T07:36:46;24.70;85.50
4635;DHT22;2330;48.158;11.816;2023-06-10T07:39:13;24.40;86.50
4635;DHT22;2330;48.158;11.816;2023-06-10T07:41:40;24.60;86.70
4635;DHT22;2330;48.158;11.816;2023-06-10T07:44:07;24.90;85.90
4635;DHT22;2330;48.158;11.816;2023-06-10T07:46:33;25.20;85.20
4635;DHT22;2330;48.158;11.816;2023-06-10T07:49:00;25.00;85.20
4635;DHT22;2330;48.158;11.816;2023-06-10T07:51:27;24.30;84.90
4635;DHT22;2330;48.158;11.816;2023-06-10T07:53:54;24.20;86.20
4635;DHT22;2330;48.158;11.816;2023-06-10T07:56:21;24.40;86.00
4635;DHT22;2330;48.158;11.816;2023-06-10T07:58:48;24.60;86.00
4635;DHT22;2330;48.158;11.816;2023-06-10T08:01:14;24.90;84.80
4635;DHT22;2330;48.158;11.816;2023-06-10T08:03:42;25.20;84.90
4635;DHT22;2330;48.158;11.816;2023-06-10T08:06:10;25.40;83.90
4635;DHT22;2330;48.158;11.816;2023-06-10T08:08:38;25.50;82.70
4635;DHT22;2330;48.158;11.816;2023-06-10T08:11:11;25.00;84.70
4635;DHT22;2330;48.158;11.816;2023-06-10T08:13:38;24.80;85.20
4635;DHT22;2330;48.158;11.816;2023-06-10T08:16:04;25.10;84.40
4635;DHT22;2330;48.158;11.816;2023-06-10T08:18:31;25.50;84.00
4635;DHT22;2330;48.158;11.816;2023-06-10T08:20:58;25.20;83.40
4635;DHT22;2330;48.158;11.816;2023-06-10T08:23:25;25.40;82.90
4635;DHT22;2330;48.158;11.816;2023-06-10T08:25:52;25.70;82.50
4635;DHT22;2330;48.158;11.816;2023-06-10T08:28:19;25.40;82.10
4635;DHT22;2330;48.158;11.816;2023-06-10T08:30:46;25.20;81.90
4635;DHT22;2330;48.158;11.816;2023-06-10T08:33:13;25.10;82.50
4635;DHT22;2330;48.158;11.816;2023-06-10T08:35:40;24.80;84.00
4635;DHT22;2330;48.158;11.816;2023-06-10T08:38:06;25.10;83.10
4635;DHT22;2330;48.158;11.816;2023-06-10T08:40:33;25.20;83.80
4635;DHT22;2330;48.158;11.816;2023-06-10T08:43:08;25.20;83.90
4635;DHT22;2330;48.158;11.816;2023-06-10T08:45:37;25.40;83.60
4635;DHT22;2330;48.158;11.816;2023-06-10T08:48:04;25.30;83.50
4635;DHT22;2330;48.158;11.816;2023-06-10T08:50:35;25.60;83.20
4635;DHT22;2330;48.158;11.816;2023-06-10T08:53:06;25.70;82.60
4635;DHT22;2330;48.158;11.816;2023-06-10T08:55:35;25.60;82.90
4635;DHT22;2330;48.158;11.816;2023-06-10T08:58:03;25.60;83.90
4635;DHT22;2330;48.158;11.816;2023-06-10T09:00:31;25.40;83.60
4635;DHT22;2330;48.158;11.816;2023-06-10T09:02:59;25.20;84.20
4635;DHT22;2330;48.158;11.816;2023-06-10T09:05:33;25.20;84.30
4635;DHT22;2330;48.158;11.816;2023-06-10T09:08:00;25.20;84.20
4635;DHT22;2330;48.158;11.816;2023-06-10T09:10:27;25.00;84.80
4635;DHT22;2330;48.158;11.816;2023-06-10T09:12:54;24.70;85.50
4635;DHT22;2330;48.158;11.816;2023-06-10T09:15:22;24.80;86.00
4635;DHT22;2330;48.158;11.816;2023-06-10T09:17:49;25.10;85.90
4635;DHT22;2330;48.158;11.816;2023-06-10T09:20:16;25.30;84.50
4635;DHT22;2330;48.158;11.816;2023-06-10T09:22:44;25.70;84.10
4635;DHT22;2330;48.158;11.816;2023-06-10T09:25:12;26.00;82.70
4635;DHT22;2330;48.158;11.816;2023-06-10T09:27:50;26.10;82.00
4635;DHT22;2330;48.158;11.816;2023-06-10T09:30:28;26.20;81.90
4635;DHT22;2330;48.158;11.816;2023-06-10T09:32:57;26.00;80.50
4635;DHT22;2330;48.158;11.816;2023-06-10T09:35:25;26.00;81.70
4635;DHT22;2330;48.158;11.816;2023-06-10T09:37:55;26.10;82.10
4635;DHT22;2330;48.158;11.816;2023-06-10T09:40:22;26.60;81.90
4635;DHT22;2330;48.158;11.816;2023-06-10T09:42:54;26.90;81.70
4635;DHT22;2330;48.158;11.816;2023-06-10T09:45:22;26.70;80.90
4635;DHT22;2330;48.158;11.816;2023-06-10T09:47:53;27.10;79.00
4635;DHT22;2330;48.158;11.816;2023-06-10T09:50:20;26.80;79.30
4635;DHT22;2330;48.158;11.816;2023-06-10T09:52:47;26.90;80.30
4635;DHT22;2330;48.158;11.816;2023-06-10T09:55:15;27.00;79.10
4635;DHT22;2330;48.158;11.816;2023-06-10T09:57:42;27.20;79.90
4635;DHT22;2330;48.158;11.816;2023-06-10T10:00:12;27.00;78.20
4635;DHT22;2330;48.158;11.816;2023-06-10T10:02:49;27.10;78.50
4635;DHT22;2330;48.158;11.816;2023-06-10T10:05:21;27.10;78.50
4635;DHT22;2330;48.158;11.816;2023-06-10T10:07:48;26.40;79.80
4635;DHT22;2330;48.158;11.816;2023-06-10T10:10:17;26.60;80.80
4635;DHT22;2330;48.158;11.816;2023-06-10T10:12:47;26.50;79.60
4635;DHT22;2330;48.158;11.816;2023-06-10T10:15:16;26.40;79.20
4635;DHT22;2330;48.158;11.816;2023-06-10T10:17:49;26.60;79.60
4635;DHT22;2330;48.158;11.816;2023-06-10T10:20:20;26.70;79.60
4635;DHT22;2330;48.158;11.816;2023-06-10T10:22:49;26.80;79.60
4635;DHT22;2330;48.158;11.816;2023-06-10T10:25:38;26.70;78.40
4635;DHT22;2330;48.158;11.816;2023-06-10T10:28:11;26.30;80.70
4635;DHT22;2330;48.158;11.816;2023-06-10T10:30:59;26.00;80.90
4635;DHT22;2330;48.158;11.816;2023-06-10T10:33:36;26.50;79.20
4635;DHT22;2330;48.158;11.816;2023-06-10T10:36:06;27.00;75.60
4635;DHT22;2330;48.158;11.816;2023-06-10T10:38:36;26.90;76.60
4635;DHT22;2330;48.158;11.816;2023-06-10T10:41:04;26.70;78.60
4635;DHT22;2330;48.158;11.816;2023-06-10T10:43:32;26.30;78.90
4635;DHT22;2330;48.158;11.816;2023-06-10T10:46:09;26.20;77.70
4635;DHT22;2330;48.158;11.816;2023-06-10T10:48:39;26.20;79.40
4635;DHT22;2330;48.158;11.816;2023-06-10T10:51:08;26.60;77.70
4635;DHT22;2330;48.158;11.816;2023-06-10T10:53:39;26.90;77.00
4635;DHT22;2330;48.158;11.816;2023-06-10T10:56:08;26.60;77.30
4635;DHT22;2330;48.158;11.816;2023-06-10T10:58:40;26.40;76.70
4635;DHT22;2330;48.158;11.816;2023-06-10T11:01:14;26.60;77.60
4635;DHT22;2330;48.158;11.816;2023-06-10T11:03:45;27.10;77.10
4635;DHT22;2330;48.158;11.816;2023-06-10T11:06:16;27.20;76.50
4635;DHT22;2330;48.158;11.816;2023-06-10T11:11:25;27.30;75.10
4635;DHT22;2330;48.158;11.816;2023-06-10T11:16:28;27.40;75.60
4635;DHT22;2330;48.158;11.816;2023-06-10T11:18:56;27.10;73.60
4635;DHT22;2330;48.158;11.816;2023-06-10T11:21:24;27.30;73.90
4635;DHT22;2330;48.158;11.816;2023-06-10T11:23:58;27.50;75.10
4635;DHT22;2330;48.158;11.816;2023-06-10T11:31:30;27.50;72.30
4635;DHT22;2330;48.158;11.816;2023-06-10T11:33:59;27.30;73.20
4635;DHT22;2330;48.158;11.816;2023-06-10T11:36:27;27.20;72.00
4635;DHT22;2330;48.158;11.816;2023-06-10T11:38:59;27.70;72.10
4635;DHT22;2330;48.158;11.816;2023-06-10T11:41:28;28.10;72.70
4635;DHT22;2330;48.158;11.816;2023-06-10T11:43:56;27.90;71.60
4635;DHT22;2330;48.158;11.816;2023-06-10T11:46:23;27.80;72.80
4635;DHT22;2330;48.158;11.816;2023-06-10T11:48:55;28.30;71.40
4635;DHT22;2330;48.158;11.816;2023-06-10T11:51:26;28.90;73.10
4635;DHT22;2330;48.158;11.816;2023-06-10T11:53:54;29.10;70.20
4635;DHT22;2330;48.158;11.816;2023-06-10T11:56:25;28.70;70.70
4635;DHT22;2330;48.158;11.816;2023-06-10T11:58:54;28.30;71.20
4635;DHT22;2330;48.158;11.816;2023-06-10T12:01:22;28.50;72.40
4635;DHT22;2330;48.158;11.816;2023-06-10T12:04:06;28.70;71.30
4635;DHT22;2330;48.158;11.816;2023-06-10T12:06:46;28.20;73.10
4635;DHT22;2330;48.158;11.816;2023-06-10T12:09:27;27.60;72.80
4635;DHT22;2330;48.158;11.816;2023-06-10T12:11:58;27.30;74.90
4635;DHT22;2330;48.158;11.816;2023-06-10T12:17:17;26.20;78.20
4635;DHT22;2330;48.158;11.816;2023-06-10T12:19:43;25.90;79.20
4635;DHT22;2330;48.158;11.816;2023-06-10T12:22:10;25.90;79.70
4635;DHT22;2330;48.158;11.816;2023-06-10T12:24:59;26.40;80.00
4635;DHT22;2330;48.158;11.816;2023-06-10T12:27:26;26.90;80.10
4635;DHT22;2330;48.158;11.816;2023-06-10T12:29:58;27.10;79.70
4635;DHT22;2330;48.158;11.816;2023-06-10T12:32:44;27.20;80.30
4635;DHT22;2330;48.158;11.816;2023-06-10T12:35:12;27.00;80.30
4635;DHT22;2330;48.158;11.816;2023-06-10T12:37:41;27.20;81.10
4635;DHT22;2330;48.158;11.816;2023-06-10T12:40:10;27.50;80.50
4635;DHT22;2330;48.158;11.816;2023-06-10T12:42:38;27.60;78.80
4635;DHT22;2330;48.158;11.816;2023-06-10T12:45:05;27.40;78.70
4635;DHT22;2330;48.158;11.816;2023-06-10T12:47:36;27.30;78.60
4635;DHT22;2330;48.158;11.816;2023-06-10T12:50:06;26.80;78.70
4635;DHT22;2330;48.158;11.816;2023-06-10T12:52:33;26.50;79.40
4635;DHT22;2330;48.158;11.816;2023-06-10T12:55:00;26.10;80.00
4635;DHT22;2330;48.158;11.816;2023-06-10T12:57:27;25.80;80.30
4635;DHT22;2330;48.158;11.816;2023-06-10T12:59:54;25.70;80.80
4635;DHT22;2330;48.158;11.816;2023-06-10T13:02:23;25.60;81.50
4635;DHT22;2330;48.158;11.816;2023-06-10T13:04:51;25.60;82.00
4635;DHT22;2330;48.158;11.816;2023-06-10T13:07:18;25.70;81.10
4635;DHT22;2330;48.158;11.816;2023-06-10T13:09:44;25.60;80.50
4635;DHT22;2330;48.158;11.816;2023-06-10T13:12:11;25.50;81.30
4635;DHT22;2330;48.158;11.816;2023-06-10T13:14:42;25.50;80.70
4635;DHT22;2330;48.158;11.816;2023-06-10T13:17:09;25.40;81.00
4635;DHT22;2330;48.158;11.816;2023-06-10T13:19:35;25.40;81.60
4635;DHT22;2330;48.158;11.816;2023-06-10T13:22:03;25.40;81.10
4635;DHT22;2330;48.158;11.816;2023-06-10T13:24:30;25.30;80.80
4635;DHT22;2330;48.158;11.816;2023-06-10T13:26:56;25.50;81.30
4635;DHT22;2330;48.158;11.816;2023-06-10T13:29:24;25.40;80.70
4635;DHT22;2330;48.158;11.816;2023-06-10T13:31:51;25.30;82.30
4635;DHT22;2330;48.158;11.816;2023-06-10T13:34:18;25.30;81.20
4635;DHT22;2330;48.158;11.816;2023-06-10T13:36:44;25.50;81.70
4635;DHT22;2330;48.158;11.816;2023-06-10T13:39:11;25.60;81.00
4635;DHT22;2330;48.158;11.816;2023-06-10T13:41:41;25.50;81.10
4635;DHT22;2330;48.158;11.816;2023-06-10T13:44:08;25.60;80.30
4635;DHT22;2330;48.158;11.816;2023-06-10T13:46:35;25.70;79.70
4635;DHT22;2330;48.158;11.816;2023-06-10T13:49:02;25.90;79.10
4635;DHT22;2330;48.158;11.816;2023-06-10T13:51:28;26.30;78.10
4635;DHT22;2330;48.158;11.816;2023-06-10T13:53:55;26.70;78.40
4635;DHT22;2330;48.158;11.816;2023-06-10T13:56:22;27.30;78.80
4635;DHT22;2330;48.158;11.816;2023-06-10T13:58:49;27.60;76.20
4635;DHT22;2330;48.158;11.816;2023-06-10T14:01:16;27.50;75.90
4635;DHT22;2330;48.158;11.816;2023-06-10T14:03:43;27.40;75.40
4635;DHT22;2330;48.158;11.816;2023-06-10T14:06:09;27.90;75.10
4635;DHT22;2330;48.158;11.816;2023-06-10T14:08:39;27.90;73.30
4635;DHT22;2330;48.158;11.816;2023-06-10T14:11:06;27.60;72.90
4635;DHT22;2330;48.158;11.816;2023-06-10T14:13:33;27.30;73.90
4635;DHT22;2330;48.158;11.816;2023-06-10T14:16:00;27.70;74.40
4635;DHT22;2330;48.158;11.816;2023-06-10T14:18:29;27.90;73.50
4635;DHT22;2330;48.158;11.816;2023-06-10T14:20:56;27.80;73.30
4635;DHT22;2330;48.158;11.816;2023-06-10T14:23:22;28.00;74.50
4635;DHT22;2330;48.158;11.816;2023-06-10T14:25:51;27.90;75.40
4635;DHT22;2330;48.158;11.816;2023-06-10T14:28:17;28.20;75.80
4635;DHT22;2330;48.158;11.816;2023-06-10T14:30:44;28.70;76.90
4635;DHT22;2330;48.158;11.816;2023-06-10T14:33:11;28.50;75.30
4635;DHT22;2330;48.158;11.816;2023-06-10T14:35:38;27.70;75.70
4635;DHT22;2330;48.158;11.816;2023-06-10T14:38:04;27.30;77.10
4635;DHT22;2330;48.158;11.816;2023-06-10T14:40:34;26.90;78.60
4635;DHT22;2330;48.158;11.816;2023-06-10T14:43:00;26.50;79.20
4635;DHT22;2330;48.158;11.816;2023-06-10T14:45:30;26.40;79.30
4635;DHT22;2330;48.158;11.816;2023-06-10T14:48:01;26.20;78.80
4635;DHT22;2330;48.158;11.816;2023-06-10T14:50:28;25.90;78.00
4635;DHT22;2330;48.158;11.816;2023-06-10T14:52:54;25.80;78.80
4635;DHT22;2330;48.158;11.816;2023-06-10T14:55:21;25.70;80.10
4635;DHT22;2330;48.158;11.816;2023-06-10T14:57:49;25.80;80.40
4635;DHT22;2330;48.158;11.816;2023-06-10T15:00:16;25.90;80.90
4635;DHT22;2330;48.158;11.816;2023-06-10T15:02:46;25.70;80.10
4635;DHT22;2330;48.158;11.816;2023-06-10T15:05:15;25.60;81.00
4635;DHT22;2330;48.158;11.816;2023-06-10T15:07:42;25.80;80.40
4635;DHT22;2330;48.158;11.816;2023-06-10T15:10:10;25.90;80.70
4635;DHT22;2330;48.158;11.816;2023-06-10T15:12:36;25.80;81.40
4635;DHT22;2330;48.158;11.816;2023-06-10T15:15:03;25.80;80.10
4635;DHT22;2330;48.158;11.816;2023-06-10T15:17:30;25.70;80.50
4635;DHT22;2330;48.158;11.816;2023-06-10T15:19:57;25.70;79.30
4635;DHT22;2330;48.158;11.816;2023-06-10T15:22:24;25.50;79.50
4635;DHT22;2330;48.158;11.816;2023-06-10T15:24:51;25.30;81.10
4635;DHT22;2330;48.158;11.816;2023-06-10T15:27:17;25.50;80.80
4635;DHT22;2330;48.158;11.816;2023-06-10T15:29:44;25.40;81.80
4635;DHT22;2330;48.158;11.816;2023-06-10T15:32:11;25.00;82.90
4635;DHT22;2330;48.158;11.816;2023-06-10T15:34:45;25.00;84.10
4635;DHT22;2330;48.158;11.816;2023-06-10T15:37:14;25.00;84.40
4635;DHT22;2330;48.158;11.816;2023-06-10T15:39:41;24.90;83.10
4635;DHT22;2330;48.158;11.816;2023-06-10T15:42:08;24.90;83.10
4635;DHT22;2330;48.158;11.816;2023-06-10T15:44:35;24.90;84.30
4635;DHT22;2330;48.158;11.816;2023-06-10T15:47:02;24.90;85.20
4635;DHT22;2330;48.158;11.816;2023-06-10T15:49:29;25.00;85.60
4635;DHT22;2330;48.158;11.816;2023-06-10T15:51:56;25.20;84.90
4635;DHT22;2330;48.158;11.816;2023-06-10T15:54:22;25.20;85.20
4635;DHT22;2330;48.158;11.816;2023-06-10T15:56:49;25.10;84.30
4635;DHT22;2330;48.158;11.816;2023-06-10T15:59:16;24.80;85.30
4635;DHT22;2330;48.158;11.816;2023-06-10T16:01:43;24.60;85.20
4635;DHT22;2330;48.158;11.816;2023-06-10T16:04:10;24.60;86.20
4635;DHT22;2330;48.158;11.816;2023-06-10T16:06:37;24.50;86.40
4635;DHT22;2330;48.158;11.816;2023-06-10T16:09:03;24.40;87.10
4635;DHT22;2330;48.158;11.816;2023-06-10T16:11:30;24.50;87.10